Time;durP1;ratioP1;P1;durP2;ratioP2;P2;SDS_P1;SDS_P2;PMS_P1;PMS_P2;Temp;Humidity;BMP_temperature;BMP_pressure;BME280_temperature;BME280_humidity;BME280_pressure;Samples;Min_cycle;Max_cycle;Signal;HPM_P1;HPM_P2
2022/08/03 00:01:56;;;;;;;1.60;1.25;;;28.40;67.70;;;;;;6276563;22;20383;-82
2022/08/03 00:04:21;;;;;;;2.70;1.35;;;28.40;67.60;;;;;;6276775;22;20668;-82
2022/08/03 00:06:47;;;;;;;2.55;1.17;;;28.40;67.50;;;;;;6276314;22;20322;-82
2022/08/03 00:09:12;;;;;;;1.38;1.13;;;28.40;67.50;;;;;;6276421;22;20011;-84
2022/08/03 00:11:38;;;;;;;3.30;1.25;;;28.40;67.70;;;;;;6275639;22;20418;-85
2022/08/03 00:14:05;;;;;;;1.95;1.20;;;28.30;67.70;;;;;;6248709;22;20004;-83
2022/08/03 00:16:31;;;;;;;1.95;1.10;;;28.30;67.80;;;;;;6276272;22;20000;-84
2022/08/03 00:18:57;;;;;;;2.92;1.10;;;28.20;67.80;;;;;;6276078;22;20422;-83
2022/08/03 00:21:23;;;;;;;2.20;1.10;;;28.20;68.00;;;;;;6276036;22;20010;-83
2022/08/03 00:23:49;;;;;;;2.10;1.42;;;28.20;68.00;;;;;;6274900;22;20461;-82
2022/08/03 00:26:14;;;;;;;1.20;1.10;;;28.20;68.10;;;;;;6249343;22;20103;-82
2022/08/03 00:28:40;;;;;;;2.15;1.08;;;28.10;68.00;;;;;;6276196;22;20460;-82
2022/08/03 00:31:06;;;;;;;1.48;1.15;;;28.10;68.10;;;;;;6275911;22;20426;-84
2022/08/03 00:33:32;;;;;;;2.15;1.10;;;28.10;68.10;;;;;;6276379;22;19996;-83
2022/08/03 00:35:58;;;;;;;2.17;1.00;;;28.10;68.20;;;;;;6248726;22;20015;-83
2022/08/03 00:38:24;;;;;;;1.42;1.17;;;28.10;68.30;;;;;;6276158;22;20004;-83
2022/08/03 00:40:50;;;;;;;2.10;1.05;;;28.10;68.30;;;;;;6275298;22;20007;-83
2022/08/03 00:43:16;;;;;;;1.67;1.08;;;28.10;68.20;;;;;;6276050;22;20363;-83
2022/08/03 00:45:42;;;;;;;2.05;1.20;;;28.10;68.00;;;;;;6276486;22;20358;-83
2022/08/03 00:48:09;;;;;;;2.25;1.30;;;28.00;67.70;;;;;;6276563;22;20471;-82
2022/08/03 00:50:39;;;;;;;3.38;1.45;;;28.00;67.80;;;;;;6276064;22;20101;-82
2022/08/03 00:53:06;;;;;;;2.17;1.10;;;28.00;67.70;;;;;;6275868;22;20311;-83
2022/08/03 00:55:34;;;;;;;2.78;1.40;;;28.00;67.60;;;;;;6275543;22;20081;-83
2022/08/03 00:58:05;;;;;;;3.40;1.20;;;27.90;67.10;;;;;;6276284;22;20003;-83
2022/08/03 01:00:32;;;;;;;1.38;1.27;;;27.90;67.30;;;;;;6276423;22;20043;-82
2022/08/03 01:02:57;;;;;;;1.00;0.90;;;27.90;67.10;;;;;;6276558;22;20049;-82
2022/08/03 01:05:24;;;;;;;2.63;1.30;;;27.90;67.00;;;;;;6276001;22;20011;-83
2022/08/03 01:08:04;;;;;;;1.40;1.15;;;27.80;67.00;;;;;;6275640;22;20000;-83
2022/08/03 01:11:05;;;;;;;1.10;0.98;;;27.90;67.10;;;;;;6275340;22;20079;-83
2022/08/03 01:13:45;;;;;;;1.88;1.50;;;27.90;67.40;;;;;;6276653;22;20426;-85
2022/08/03 01:16:16;;;;;;;1.58;1.10;;;27.90;66.50;;;;;;6276830;22;20031;-86
2022/08/03 01:19:23;;;;;;;1.33;1.13;;;27.90;66.30;;;;;;6276153;22;20000;-87
2022/08/03 01:22:08;;;;;;;1.40;1.00;;;27.80;65.80;;;;;;6275368;22;20445;-87
2022/08/03 01:24:59;;;;;;;1.55;1.27;;;27.70;66.10;;;;;;6277329;22;20079;-87
2022/08/03 01:27:42;;;;;;;1.00;0.90;;;27.70;66.10;;;;;;6278515;22;20075;-84
2022/08/03 01:30:11;;;;;;;1.48;1.05;;;27.70;66.10;;;;;;6277518;22;20053;-83
2022/08/03 01:32:47;;;;;;;1.23;1.13;;;27.70;65.90;;;;;;6277370;22;20004;-84
2022/08/03 01:35:15;;;;;;;1.25;1.15;;;27.70;65.70;;;;;;6277719;22;19996;-86
2022/08/03 01:37:48;;;;;;;1.55;0.90;;;27.70;65.60;;;;;;6250979;22;20027;-85
2022/08/03 01:40:16;;;;;;;1.45;1.02;;;27.70;65.50;;;;;;6277782;22;19999;-85
2022/08/03 01:42:44;;;;;;;1.00;0.90;;;27.70;65.50;;;;;;6278063;22;20280;-86
2022/08/03 01:45:12;;;;;;;1.48;0.98;;;27.70;65.40;;;;;;6277718;22;20034;-86
2022/08/03 01:47:39;;;;;;;1.33;1.10;;;27.60;65.30;;;;;;6278403;22;20004;-86
2022/08/03 01:50:08;;;;;;;1.80;1.05;;;27.60;65.30;;;;;;6277529;22;20007;-87
2022/08/03 01:52:36;;;;;;;2.20;1.05;;;27.50;65.30;;;;;;6276735;22;19999;-84
2022/08/03 01:55:03;;;;;;;2.00;1.23;;;27.60;65.40;;;;;;6277289;22;20425;-85
2022/08/03 01:57:30;;;;;;;1.55;0.90;;;27.60;65.40;;;;;;6277822;22;20030;-85
2022/08/03 01:59:58;;;;;;;2.05;1.10;;;27.60;65.40;;;;;;6277165;22;20437;-83
2022/08/03 02:02:25;;;;;;;1.35;1.10;;;27.50;65.20;;;;;;6250873;22;20026;-83
2022/08/03 02:04:54;;;;;;;1.25;1.10;;;27.50;65.10;;;;;;6276635;22;20000;-84
2022/08/03 02:07:20;;;;;;;1.52;1.20;;;27.50;65.00;;;;;;6277327;22;20027;-84
2022/08/03 02:09:49;;;;;;;1.90;1.33;;;27.50;64.90;;;;;;6277118;22;20074;-84
2022/08/03 02:12:16;;;;;;;2.20;1.25;;;27.50;64.90;;;;;;6277421;22;20008;-84
2022/08/03 02:14:44;;;;;;;1.48;1.20;;;27.50;64.90;;;;;;6277616;22;20304;-84
2022/08/03 02:17:12;;;;;;;3.38;1.30;;;27.50;65.00;;;;;;6277480;22;20011;-84
2022/08/03 02:19:39;;;;;;;1.70;1.23;;;27.50;64.90;;;;;;6277261;22;20000;-82
2022/08/03 02:22:09;;;;;;;1.17;1.08;;;27.50;64.80;;;;;;6277527;22;20000;-82
2022/08/03 02:24:35;;;;;;;1.77;1.30;;;27.40;64.90;;;;;;6277317;22;20008;-83
2022/08/03 02:27:05;;;;;;;1.63;1.25;;;27.50;64.90;;;;;;6277209;22;20096;-83
2022/08/03 02:29:33;;;;;;;1.98;0.93;;;27.50;64.80;;;;;;6277151;22;20446;-82
2022/08/03 02:32:03;;;;;;;1.75;1.20;;;27.50;64.90;;;;;;6277474;22;20000;-83
2022/08/03 02:34:30;;;;;;;1.40;1.10;;;27.50;65.00;;;;;;6276771;22;19996;-83
2022/08/03 02:36:59;;;;;;;2.30;1.00;;;27.40;64.90;;;;;;6277318;22;20414;-83
2022/08/03 02:39:30;;;;;;;2.00;1.38;;;27.40;64.80;;;;;;6277423;22;20023;-83
2022/08/03 02:42:01;;;;;;;1.38;1.10;;;27.40;64.90;;;;;;6276828;22;20004;-83
2022/08/03 02:44:27;;;;;;;1.30;1.10;;;27.40;64.90;;;;;;6277027;22;20334;-81
2022/08/03 02:47:03;;;;;;;1.88;1.00;;;27.40;64.80;;;;;;6277345;22;20011;-81
2022/08/03 02:49:30;;;;;;;2.97;1.30;;;27.30;64.70;;;;;;6276674;22;20007;-81
2022/08/03 02:51:57;;;;;;;1.38;1.15;;;27.30;64.90;;;;;;6277370;22;20007;-81
2022/08/03 02:54:25;;;;;;;1.25;1.10;;;27.30;65.20;;;;;;6277056;22;20489;-81
2022/08/03 02:56:53;;;;;;;2.35;1.25;;;27.40;65.10;;;;;;6277426;22;20003;-81
2022/08/03 02:59:20;;;;;;;1.40;1.20;;;27.40;65.00;;;;;;6250014;22;20342;-81
2022/08/03 03:01:46;;;;;;;1.50;1.20;;;27.40;64.80;;;;;;6277248;22;20016;-83
2022/08/03 03:04:12;;;;;;;3.47;1.25;;;27.40;64.70;;;;;;6278007;22;20000;-82
2022/08/03 03:06:40;;;;;;;3.17;1.17;;;27.40;64.50;;;;;;6277814;22;20433;-82
2022/08/03 03:09:06;;;;;;;1.77;1.17;;;27.40;64.50;;;;;;6277182;22;20007;-85
2022/08/03 03:11:35;;;;;;;1.98;1.10;;;27.40;64.60;;;;;;6279741;22;20000;-83
2022/08/03 03:14:24;;;;;;;2.15;1.20;;;27.40;64.70;;;;;;6278233;22;20027;-81
2022/08/03 03:16:51;;;;;;;1.20;1.10;;;27.40;64.80;;;;;;6275620;22;20038;-86
2022/08/03 03:19:18;;;;;;;1.63;1.20;;;27.40;64.70;;;;;;6276559;22;20054;-86
2022/08/03 03:21:45;;;;;;;1.80;1.10;;;27.30;64.60;;;;;;6276667;22;20411;-82
2022/08/03 03:24:11;;;;;;;2.05;1.30;;;27.30;65.10;;;;;;6277115;22;20018;-82
2022/08/03 03:26:37;;;;;;;2.08;1.33;;;27.30;64.80;;;;;;6276745;22;20007;-83
2022/08/03 03:29:03;;;;;;;1.88;1.20;;;27.30;64.60;;;;;;6276194;22;20027;-83
2022/08/03 03:31:29;;;;;;;2.17;1.30;;;27.30;64.60;;;;;;6276658;22;20000;-83
2022/08/03 03:33:58;;;;;;;2.20;1.30;;;27.20;64.50;;;;;;6276839;22;20000;-82
2022/08/03 03:36:24;;;;;;;1.52;1.15;;;27.20;64.70;;;;;;6276337;22;20000;-82
2022/08/03 03:38:50;;;;;;;1.85;1.25;;;27.10;64.70;;;;;;6276032;22;20021;-82
2022/08/03 03:41:16;;;;;;;3.90;1.42;;;27.10;64.70;;;;;;6276737;22;20000;-82
2022/08/03 03:43:42;;;;;;;2.03;1.30;;;27.10;65.20;;;;;;6276973;22;20358;-82
2022/08/03 03:46:10;;;;;;;1.50;1.02;;;27.00;65.00;;;;;;6276176;22;20373;-82
2022/08/03 03:48:37;;;;;;;1.73;1.20;;;27.10;65.00;;;;;;6249548;22;20051;-82
2022/08/03 03:51:03;;;;;;;1.15;0.90;;;27.00;65.00;;;;;;6276356;22;20086;-81
2022/08/03 03:53:29;;;;;;;2.83;1.20;;;27.00;65.20;;;;;;6277311;22;20077;-82
2022/08/03 03:55:54;;;;;;;1.88;1.23;;;27.10;65.30;;;;;;6277091;22;20031;-82
2022/08/03 03:58:20;;;;;;;1.45;1.20;;;27.10;65.30;;;;;;6277043;22;19992;-82
2022/08/03 04:00:46;;;;;;;2.92;1.38;;;27.00;65.20;;;;;;6275178;22;20433;-82
2022/08/03 04:03:12;;;;;;;3.72;1.20;;;27.00;65.20;;;;;;6276416;22;20000;-85
2022/08/03 04:11:09;;;;;;;1.10;1.00;;;27.00;65.40;;;;;;6276144;22;20073;-83
2022/08/03 04:13:53;;;;;;;3.13;1.60;;;26.90;65.30;;;;;;6276697;22;20101;-83
2022/08/03 04:16:25;;;;;;;4.53;1.38;;;26.90;65.40;;;;;;6275462;22;20070;-83
2022/08/03 04:19:05;;;;;;;3.05;1.25;;;26.90;65.30;;;;;;6276041;22;20360;-81
2022/08/03 04:21:34;;;;;;;2.15;1.23;;;26.90;65.40;;;;;;6276118;22;20445;-82
2022/08/03 04:24:02;;;;;;;2.42;1.20;;;26.80;65.30;;;;;;6276221;22;20322;-82
2022/08/03 04:26:32;;;;;;;1.90;1.20;;;26.80;65.50;;;;;;6276283;22;20014;-83
2022/08/03 04:28:59;;;;;;;2.47;1.30;;;26.80;65.50;;;;;;6276517;22;20027;-83
2022/08/03 04:31:27;;;;;;;12.60;1.50;;;26.80;65.70;;;;;;6275443;22;20004;-82
2022/08/03 04:33:53;;;;;;;1.40;1.13;;;26.80;65.70;;;;;;6275960;22;19999;-82
2022/08/03 04:36:23;;;;;;;1.65;1.42;;;26.80;65.60;;;;;;6248675;22;20089;-82
2022/08/03 04:38:52;;;;;;;1.85;1.58;;;26.70;65.50;;;;;;6275675;22;19996;-82
2022/08/03 04:41:21;;;;;;;3.65;1.55;;;26.50;65.90;;;;;;6275562;22;20064;-83
2022/08/03 04:43:50;;;;;;;1.85;1.27;;;26.30;66.20;;;;;;6274986;22;20075;-83
2022/08/03 04:46:17;;;;;;;1.98;1.35;;;26.20;66.50;;;;;;6275570;22;20409;-83
2022/08/03 04:48:43;;;;;;;1.80;1.33;;;26.20;66.70;;;;;;6275968;22;20000;-83
2022/08/03 04:51:12;;;;;;;2.03;1.50;;;26.10;66.90;;;;;;6275796;22;20000;-83
2022/08/03 04:53:38;;;;;;;2.58;1.23;;;25.90;67.20;;;;;;6276351;22;20002;-83
2022/08/03 04:56:05;;;;;;;1.63;1.17;;;25.90;67.10;;;;;;6276075;22;20307;-82
2022/08/03 04:58:32;;;;;;;1.77;1.10;;;26.00;67.20;;;;;;6247356;22;20003;-84
2022/08/03 05:00:58;;;;;;;2.17;1.35;;;26.10;67.10;;;;;;6223441;22;20572;-83
2022/08/03 05:03:24;;;;;;;1.38;1.10;;;26.10;66.90;;;;;;6248955;22;20031;-83
2022/08/03 05:05:54;;;;;;;3.83;1.75;;;26.20;67.10;;;;;;6249379;22;20004;-84
2022/08/03 05:08:20;;;;;;;2.10;1.55;;;26.30;67.10;;;;;;6277939;22;20055;-83
2022/08/03 05:10:46;;;;;;;1.52;1.23;;;26.40;66.90;;;;;;6249732;22;20039;-82
2022/08/03 05:13:12;;;;;;;1.85;1.40;;;26.40;66.70;;;;;;6275756;22;20419;-83
2022/08/03 05:15:38;;;;;;;1.92;1.10;;;26.40;66.50;;;;;;6276095;22;20434;-83
2022/08/03 05:18:04;;;;;;;1.60;1.35;;;26.50;66.20;;;;;;6275892;22;20374;-84
2022/08/03 05:20:30;;;;;;;2.03;1.10;;;26.50;66.00;;;;;;6276049;22;20069;-84
2022/08/03 05:22:58;;;;;;;1.58;1.40;;;26.60;66.20;;;;;;6276224;22;20007;-82
2022/08/03 05:25:23;;;;;;;2.15;1.30;;;26.60;66.40;;;;;;6275416;22;20014;-83
2022/08/03 05:27:49;;;;;;;1.67;0.98;;;26.60;66.30;;;;;;6275451;22;20004;-83
2022/08/03 05:30:15;;;;;;;2.55;1.50;;;26.70;66.10;;;;;;6275210;22;20082;-82
2022/08/03 05:32:41;;;;;;;1.77;1.30;;;26.70;66.10;;;;;;6276155;22;20004;-83
2022/08/03 05:35:09;;;;;;;5.03;1.60;;;26.70;66.00;;;;;;6275837;22;19996;-84
2022/08/03 05:37:34;;;;;;;1.42;1.10;;;26.70;66.10;;;;;;6276336;22;20011;-83
2022/08/03 05:40:00;;;;;;;2.53;1.27;;;26.70;65.90;;;;;;6276474;22;20326;-83
2022/08/03 05:42:26;;;;;;;1.50;1.20;;;26.70;66.00;;;;;;6276595;22;19999;-83
2022/08/03 05:44:52;;;;;;;2.25;1.30;;;26.80;66.10;;;;;;6275346;22;20010;-82
2022/08/03 05:47:18;;;;;;;2.83;1.40;;;26.80;65.90;;;;;;6249009;22;20000;-81
2022/08/03 05:49:43;;;;;;;1.88;1.20;;;26.80;65.70;;;;;;6248797;22;20015;-82
2022/08/03 05:52:09;;;;;;;1.83;0.95;;;26.70;65.60;;;;;;6274971;22;20012;-84
2022/08/03 05:54:35;;;;;;;2.63;1.02;;;26.70;65.50;;;;;;6275884;22;20007;-84
2022/08/03 05:57:01;;;;;;;1.33;1.00;;;26.80;65.70;;;;;;6275568;22;20461;-83
2022/08/03 05:59:26;;;;;;;1.58;1.13;;;26.90;65.90;;;;;;6275244;22;20003;-83
2022/08/03 06:01:52;;;;;;;1.98;1.10;;;26.90;66.10;;;;;;6275373;22;20418;-84
2022/08/03 06:04:18;;;;;;;1.40;1.10;;;26.90;65.90;;;;;;6274475;22;20094;-86
2022/08/03 06:06:44;;;;;;;3.00;1.02;;;26.90;65.90;;;;;;6274935;22;20437;-84
2022/08/03 06:09:09;;;;;;;3.10;1.00;;;27.00;65.90;;;;;;6276141;22;20006;-81
2022/08/03 06:11:36;;;;;;;3.38;1.15;;;27.00;65.80;;;;;;6276363;22;20106;-80
2022/08/03 06:14:02;;;;;;;1.02;0.90;;;27.00;65.90;;;;;;6277705;22;20414;-81
2022/08/03 06:16:28;;;;;;;1.30;1.02;;;27.10;65.90;;;;;;6277683;22;20000;-80
2022/08/03 06:18:54;;;;;;;1.25;1.10;;;27.10;65.60;;;;;;6250766;22;20030;-80
2022/08/03 06:21:19;;;;;;;0.93;0.80;;;27.10;65.30;;;;;;6250328;22;20010;-81
2022/08/03 06:23:46;;;;;;;1.40;1.10;;;27.10;65.20;;;;;;6277927;22;20000;-81
2022/08/03 06:26:22;;;;;;;3.03;1.20;;;27.20;65.20;;;;;;6277610;22;20007;-81
2022/08/03 06:28:48;;;;;;;1.45;1.10;;;27.20;65.10;;;;;;6277919;22;20053;-80
2022/08/03 06:31:14;;;;;;;9.13;1.35;;;27.20;64.80;;;;;;6268715;22;20046;-81
2022/08/03 06:33:39;;;;;;;1.63;1.13;;;27.30;65.10;;;;;;6272332;22;20000;-81
2022/08/03 06:36:10;;;;;;;1.08;1.00;;;27.30;65.00;;;;;;6275903;22;20074;-82
2022/08/03 06:38:36;;;;;;;1.10;1.00;;;27.30;65.10;;;;;;6248281;22;20061;-81
2022/08/03 06:41:01;;;;;;;1.38;1.00;;;27.40;65.00;;;;;;6276816;22;20011;-82
2022/08/03 06:43:30;;;;;;;5.88;1.65;;;27.40;65.60;;;;;;6276615;22;20057;-81
2022/08/03 06:45:55;;;;;;;1.20;1.08;;;27.40;64.80;;;;;;6276735;22;20049;-82
2022/08/03 06:48:21;;;;;;;2.45;0.98;;;27.50;64.60;;;;;;6275896;22;20003;-83
2022/08/03 06:50:47;;;;;;;1.55;1.10;;;27.50;64.40;;;;;;6275829;22;20003;-81
2022/08/03 06:53:13;;;;;;;1.10;1.00;;;27.50;64.20;;;;;;6246443;22;20034;-81
2022/08/03 06:55:38;;;;;;;2.38;1.50;;;27.60;64.30;;;;;;6273547;22;20026;-81
2022/08/03 06:58:04;;;;;;;1.60;1.27;;;27.60;64.10;;;;;;6275121;22;20033;-82
2022/08/03 07:00:30;;;;;;;2.22;1.15;;;27.70;64.00;;;;;;6274304;22;20011;-81
2022/08/03 07:02:55;;;;;;;0.95;0.93;;;27.70;63.90;;;;;;6249816;22;20003;-87
2022/08/03 07:05:21;;;;;;;2.08;1.20;;;27.80;64.50;;;;;;6275818;22;20011;-87
2022/08/03 07:07:48;;;;;;;2.08;1.27;;;27.80;64.00;;;;;;6275369;22;20047;-86
2022/08/03 07:10:13;;;;;;;1.45;1.25;;;27.80;63.70;;;;;;6275981;22;20025;-86
2022/08/03 07:12:40;;;;;;;1.65;1.20;;;27.90;63.60;;;;;;6276219;22;20071;-87
2022/08/03 07:15:06;;;;;;;1.80;1.10;;;28.00;63.50;;;;;;6275373;22;19996;-87
2022/08/03 07:17:33;;;;;;;1.30;0.90;;;28.10;63.50;;;;;;6276628;22;20000;-86
2022/08/03 07:20:00;;;;;;;1.35;1.10;;;28.10;63.20;;;;;;6276626;22;19996;-85
2022/08/03 07:22:27;;;;;;;1.70;1.23;;;28.20;63.00;;;;;;6245672;22;20007;-83
2022/08/03 07:24:53;;;;;;;2.00;1.20;;;28.30;63.10;;;;;;6273047;22;20003;-85
2022/08/03 07:27:19;;;;;;;2.38;1.40;;;28.30;62.60;;;;;;6276930;22;20294;-81
2022/08/03 07:29:44;;;;;;;1.92;1.20;;;28.40;62.50;;;;;;6275741;22;20079;-81
2022/08/03 07:32:10;;;;;;;1.42;1.00;;;28.40;62.10;;;;;;6275341;22;19999;-81
2022/08/03 07:34:35;;;;;;;1.17;0.95;;;28.50;61.90;;;;;;6249076;22;20004;-80
2022/08/03 07:37:01;;;;;;;3.05;1.40;;;28.60;61.80;;;;;;6275803;22;20023;-81
2022/08/03 07:39:27;;;;;;;2.13;1.25;;;28.60;61.60;;;;;;6275702;22;20106;-80
2022/08/03 07:41:52;;;;;;;3.08;1.25;;;28.60;61.50;;;;;;6276998;22;20000;-80
2022/08/03 07:44:18;;;;;;;1.67;1.10;;;28.70;61.50;;;;;;6276296;22;20004;-81
2022/08/03 07:46:44;;;;;;;1.75;1.05;;;28.80;61.10;;;;;;6276777;22;19999;-80
2022/08/03 07:49:10;;;;;;;1.83;1.10;;;28.90;60.80;;;;;;6275893;22;20468;-81
2022/08/03 07:51:36;;;;;;;1.98;1.17;;;28.90;60.40;;;;;;6276000;22;20010;-81
2022/08/03 07:54:02;;;;;;;1.88;1.05;;;28.90;60.30;;;;;;6274710;22;20355;-81
2022/08/03 07:56:27;;;;;;;2.05;1.10;;;29.00;60.40;;;;;;6275176;22;19999;-81
2022/08/03 07:58:54;;;;;;;3.13;1.40;;;29.10;60.30;;;;;;6275409;22;20453;-81
2022/08/03 08:01:19;;;;;;;1.67;1.38;;;29.10;60.20;;;;;;6274671;22;20023;-80
2022/08/03 08:03:46;;;;;;;3.22;1.10;;;29.20;60.20;;;;;;6274971;22;20075;-81
2022/08/03 08:06:12;;;;;;;1.35;1.10;;;29.20;60.00;;;;;;6275850;22;20004;-81
2022/08/03 08:08:38;;;;;;;5.82;1.65;;;29.30;59.80;;;;;;6275332;22;20010;-80
2022/08/03 08:11:04;;;;;;;1.73;1.20;;;29.30;59.30;;;;;;6276409;22;20337;-80
2022/08/03 08:13:30;;;;;;;2.42;1.13;;;29.40;59.70;;;;;;6275559;22;20027;-80
2022/08/03 08:15:56;;;;;;;1.55;0.90;;;29.50;59.90;;;;;;6275476;22;20030;-80
2022/08/03 08:18:22;;;;;;;1.55;1.30;;;29.50;60.00;;;;;;6275785;22;19996;-81
2022/08/03 08:20:49;;;;;;;1.15;1.05;;;29.60;59.50;;;;;;6274843;22;20319;-80
2022/08/03 08:23:22;;;;;;;1.58;1.30;;;29.70;59.10;;;;;;6247458;22;20003;-80
2022/08/03 08:25:49;;;;;;;1.27;1.02;;;29.70;59.00;;;;;;6271290;22;19999;-80
2022/08/03 08:28:17;;;;;;;4.10;1.50;;;29.80;58.60;;;;;;6274344;22;20003;-81
2022/08/03 08:30:44;;;;;;;4.10;1.58;;;29.80;58.80;;;;;;6273362;22;20307;-81
2022/08/03 08:33:09;;;;;;;1.40;1.10;;;30.00;59.30;;;;;;6247814;22;20410;-81
2022/08/03 08:35:35;;;;;;;3.40;1.60;;;30.00;59.50;;;;;;6274655;22;20002;-80
2022/08/03 08:38:01;;;;;;;1.23;1.13;;;30.00;58.90;;;;;;6275953;22;20006;-81
2022/08/03 08:40:27;;;;;;;1.40;1.30;;;30.20;58.30;;;;;;6248674;22;20427;-81
2022/08/03 08:42:53;;;;;;;1.27;1.05;;;30.20;59.00;;;;;;6275335;22;20343;-81
2022/08/03 08:45:19;;;;;;;2.13;1.35;;;30.30;58.80;;;;;;6273632;22;20026;-81
2022/08/03 08:47:47;;;;;;;2.78;1.45;;;30.40;58.90;;;;;;6274719;22;20011;-81
2022/08/03 08:50:16;;;;;;;1.17;1.08;;;30.40;58.90;;;;;;6275956;22;20011;-81
2022/08/03 08:55:22;;;;;;;3.33;1.15;;;30.50;58.70;;;;;;6349625;22;20025;-74
2022/08/03 08:57:58;;;;;;;1.83;1.10;;;30.60;58.00;;;;;;6368487;22;20331;-74
2022/08/03 09:00:23;;;;;;;3.53;1.00;;;30.60;57.90;;;;;;6366869;22;20018;-81
2022/08/03 09:02:49;;;;;;;1.40;1.05;;;30.70;58.10;;;;;;6367757;22;20420;-75
2022/08/03 09:05:18;;;;;;;3.67;1.15;;;30.70;57.70;;;;;;6367934;22;20014;-74
2022/08/03 09:07:45;;;;;;;3.47;1.20;;;30.80;57.80;;;;;;6368745;22;20081;-74
2022/08/03 09:10:17;;;;;;;1.08;0.98;;;30.80;57.80;;;;;;6368012;22;20046;-74
2022/08/03 09:12:45;;;;;;;2.65;1.25;;;30.90;57.90;;;;;;6369427;22;20009;-75
2022/08/03 09:15:22;;;;;;;3.10;1.45;;;30.90;58.00;;;;;;6367851;22;20043;-74
2022/08/03 09:17:49;;;;;;;1.95;1.10;;;31.00;57.90;;;;;;6369414;22;20018;-74
2022/08/03 09:20:15;;;;;;;3.53;1.48;;;31.00;58.30;;;;;;6368798;22;20093;-74
2022/08/03 09:22:57;;;;;;;3.35;0.93;;;31.10;57.40;;;;;;6369641;22;19998;-74
2022/08/03 09:25:32;;;;;;;4.38;1.40;;;31.20;58.10;;;;;;6367769;22;19998;-75
2022/08/03 09:28:09;;;;;;;2.03;1.27;;;31.20;57.40;;;;;;6368229;22;19994;-74
2022/08/03 09:30:40;;;;;;;1.83;1.08;;;31.20;57.00;;;;;;6368493;22;20003;-74
2022/08/03 09:33:10;;;;;;;1.27;0.88;;;31.30;57.30;;;;;;6368081;22;19999;-74
2022/08/03 09:35:45;;;;;;;3.90;1.00;;;31.30;57.60;;;;;;6340673;22;20328;-80
2022/08/03 09:38:14;;;;;;;1.77;1.00;;;31.40;57.30;;;;;;6341815;22;20544;-80
2022/08/03 09:40:40;;;;;;;2.22;1.45;;;31.50;57.20;;;;;;6368644;22;20020;-80
2022/08/03 09:43:07;;;;;;;1.38;1.02;;;31.50;57.00;;;;;;6368725;22;20007;-80
2022/08/03 09:45:36;;;;;;;3.47;1.10;;;31.70;57.20;;;;;;6368843;22;20443;-80
2022/08/03 09:48:21;;;;;;;;;;;31.70;56.30;;;;;;6370942;22;20060;-80
2022/08/03 09:50:55;;;;;;;1.77;1.27;;;31.80;56.20;;;;;;6370261;22;19980;-79
2022/08/03 09:53:21;;;;;;;1.75;1.20;;;31.90;56.60;;;;;;6370989;22;19999;-80
2022/08/03 09:55:59;;;;;;;3.63;1.10;;;32.00;56.80;;;;;;6370054;22;20021;-80
2022/08/03 09:58:27;;;;;;;1.20;0.85;;;32.10;56.30;;;;;;6370833;22;19999;-79
2022/08/03 10:01:02;;;;;;;1.15;0.88;;;32.20;56.10;;;;;;6370478;22;20002;-79
2022/08/03 10:03:29;;;;;;;2.25;1.38;;;32.30;55.60;;;;;;6369148;22;20002;-79
2022/08/03 10:06:04;;;;;;;1.95;1.08;;;32.40;55.40;;;;;;6369523;22;20048;-79
2022/08/03 10:08:31;;;;;;;3.20;1.10;;;32.40;55.20;;;;;;6371213;22;20009;-80
2022/08/03 10:10:58;;;;;;;2.20;0.90;;;32.50;54.80;;;;;;6370450;22;20005;-79
2022/08/03 10:13:24;;;;;;;2.47;1.50;;;32.60;54.30;;;;;;6371380;22;20048;-79
2022/08/03 10:15:50;;;;;;;1.45;1.17;;;32.70;54.40;;;;;;6369981;22;19998;-79
2022/08/03 10:18:15;;;;;;;1.50;1.00;;;32.80;54.00;;;;;;6370515;22;20015;-79
2022/08/03 10:21:07;;;;;;;3.15;1.20;;;32.80;53.80;;;;;;6369733;22;20010;-79
2022/08/03 10:23:45;;;;;;;7.65;1.20;;;32.90;53.40;;;;;;6362485;22;20021;-78
2022/08/03 10:26:15;;;;;;;1.15;0.88;;;33.00;53.80;;;;;;6341745;22;20301;-80
2022/08/03 10:28:47;;;;;;;1.42;1.17;;;33.20;53.80;;;;;;6370742;22;19999;-80
2022/08/03 10:31:15;;;;;;;1.88;0.98;;;33.30;53.40;;;;;;6369834;22;20006;-80
2022/08/03 10:33:44;;;;;;;1.38;1.00;;;33.40;53.00;;;;;;6369439;22;20022;-80
2022/08/03 10:36:13;;;;;;;2.35;1.67;;;33.40;52.50;;;;;;6368531;22;20026;-79
2022/08/03 10:38:53;;;;;;;1.75;1.20;;;33.50;52.30;;;;;;6368577;22;20021;-80
2022/08/03 10:41:25;;;;;;;1.27;1.15;;;33.60;52.60;;;;;;6369965;22;20005;-80
2022/08/03 10:44:04;;;;;;;1.70;1.27;;;33.70;52.80;;;;;;6370102;22;19998;-79
2022/08/03 10:46:32;;;;;;;1.35;1.00;;;33.80;52.60;;;;;;6369600;22;20006;-79
2022/08/03 10:48:58;;;;;;;1.90;1.23;;;33.90;52.70;;;;;;6370324;22;20002;-79
2022/08/03 10:51:24;;;;;;;1.48;1.27;;;34.00;52.20;;;;;;6371006;22;20124;-79
2022/08/03 10:53:49;;;;;;;4.15;1.15;;;34.00;52.00;;;;;;6368387;22;20006;-79
2022/08/03 10:59:19;;;;;;;3.17;1.42;;;34.30;51.50;;;;;;6368705;22;20458;-79
2022/08/03 11:01:54;;;;;;;1.33;1.20;;;34.40;51.80;;;;;;6370489;22;20003;-79
2022/08/03 11:04:22;;;;;;;1.20;1.00;;;34.60;51.50;;;;;;6342530;22;20013;-79
2022/08/03 11:07:21;;;;;;;1.15;1.00;;;34.70;51.50;;;;;;6367889;22;20293;-80
2022/08/03 11:09:52;;;;;;;1.20;1.10;;;34.80;51.50;;;;;;6370903;22;20081;-79
2022/08/03 11:12:30;;;;;;;1.35;1.20;;;34.90;51.30;;;;;;6369627;22;20428;-79
2022/08/03 11:14:58;;;;;;;0.88;0.88;;;35.00;50.90;;;;;;6341973;22;20111;-79
2022/08/03 11:17:24;;;;;;;3.80;1.40;;;35.10;50.90;;;;;;6369682;22;19994;-79
2022/08/03 11:19:52;;;;;;;3.03;1.50;;;35.30;51.00;;;;;;6370451;22;20002;-79
2022/08/03 11:22:19;;;;;;;1.98;1.25;;;35.40;49.60;;;;;;6370691;22;19998;-79
2022/08/03 11:24:46;;;;;;;1.40;1.30;;;35.40;50.00;;;;;;6369836;22;20021;-80
2022/08/03 11:27:25;;;;;;;2.28;1.13;;;35.50;50.30;;;;;;6339314;22;20017;-73
2022/08/03 11:30:05;;;;;;;2.90;1.10;;;35.70;49.10;;;;;;6368071;22;20002;-73
2022/08/03 11:32:36;;;;;;;1.33;1.02;;;35.90;49.10;;;;;;6369659;22;20004;-73
2022/08/03 11:35:11;;;;;;;1.00;1.00;;;36.00;49.30;;;;;;6369871;22;20002;-80
2022/08/03 11:38:05;;;;;;;1.25;1.10;;;36.20;48.80;;;;;;6369111;22;20002;-80
2022/08/03 11:40:32;;;;;;;1.30;1.17;;;36.40;48.40;;;;;;6366985;22;20014;-81
2022/08/03 11:42:58;;;;;;;1.95;1.27;;;36.60;48.90;;;;;;6368331;22;20041;-80
2022/08/03 11:45:24;;;;;;;2.67;1.20;;;36.70;46.50;;;;;;6368913;22;19999;-80
2022/08/03 11:47:53;;;;;;;1.33;1.20;;;37.00;47.50;;;;;;6369423;22;20028;-80
2022/08/03 11:50:20;;;;;;;;;;;37.20;46.30;;;;;;6370660;22;20035;-80
2022/08/03 11:52:47;;;;;;;2.15;1.13;;;37.40;45.60;;;;;;6368609;22;20300;-81
2022/08/03 11:55:14;;;;;;;2.35;1.15;;;37.60;45.70;;;;;;6369991;22;20017;-81
2022/08/03 11:57:41;;;;;;;2.38;1.38;;;37.80;45.50;;;;;;6367209;22;20010;-80
2022/08/03 12:00:20;;;;;;;2.33;1.00;;;38.00;45.50;;;;;;6369734;22;20026;-81
2022/08/03 12:02:59;;;;;;;1.80;1.25;;;38.30;45.10;;;;;;6368808;22;20002;-81
2022/08/03 12:05:32;;;;;;;;;;;38.50;43.80;;;;;;6369711;22;20001;-81
2022/08/03 12:07:58;;;;;;;1.95;1.35;;;38.60;43.50;;;;;;6368383;22;19898;-80
2022/08/03 12:10:28;;;;;;;2.17;1.40;;;38.70;44.20;;;;;;6368173;22;20052;-73
2022/08/03 12:12:57;;;;;;;3.53;1.20;;;38.80;44.20;;;;;;6369714;22;19998;-73
2022/08/03 12:15:28;;;;;;;4.32;1.30;;;38.90;43.50;;;;;;6369763;22;20001;-74
2022/08/03 12:17:56;;;;;;;2.38;1.33;;;38.90;43.20;;;;;;6369782;22;19998;-74
2022/08/03 12:20:29;;;;;;;1.90;1.30;;;39.00;43.40;;;;;;6369572;22;20040;-73
2022/08/03 12:23:04;;;;;;;3.55;1.50;;;39.10;42.90;;;;;;6369455;22;20051;-74
2022/08/03 12:25:31;;;;;;;2.63;1.27;;;39.30;43.00;;;;;;6369143;22;20029;-81
2022/08/03 12:28:30;;;;;;;2.17;1.15;;;39.40;43.10;;;;;;6366251;22;20044;-81
2022/08/03 12:31:02;;;;;;;4.50;1.23;;;39.50;40.20;;;;;;6328620;22;20010;-81
2022/08/03 12:33:27;;;;;;;2.00;0.90;;;39.60;41.30;;;;;;6368621;22;20041;-74
2022/08/03 12:36:09;;;;;;;2.70;1.15;;;39.60;40.60;;;;;;6369020;22;20002;-74
2022/08/03 12:38:38;;;;;;;2.92;1.35;;;39.60;40.40;;;;;;6368528;22;20435;-74
2022/08/03 12:41:12;;;;;;;3.88;1.30;;;39.80;41.00;;;;;;6368378;22;19998;-74
2022/08/03 12:43:49;;;;;;;1.27;0.90;;;39.90;39.40;;;;;;6340575;22;20006;-75
2022/08/03 12:46:17;;;;;;;1.50;1.05;;;40.00;38.50;;;;;;6367651;22;19999;-75
2022/08/03 12:49:10;;;;;;;3.22;1.17;;;40.00;39.70;;;;;;6341957;22;20022;-75
2022/08/03 12:51:42;;;;;;;2.25;1.05;;;40.10;38.50;;;;;;6367413;22;20016;-75
2022/08/03 12:54:09;;;;;;;1.00;0.85;;;40.00;39.50;;;;;;6366686;22;20420;-75
2022/08/03 12:56:54;;;;;;;1.35;1.13;;;40.10;38.80;;;;;;6367748;22;20428;-75
2022/08/03 12:59:25;;;;;;;2.80;0.93;;;40.00;39.00;;;;;;6367852;22;20428;-75
2022/08/03 13:01:52;;;;;;;2.50;1.13;;;40.00;39.00;;;;;;6342467;22;20512;-74
2022/08/03 13:04:32;;;;;;;1.60;1.05;;;40.00;38.60;;;;;;6368949;22;20032;-82
2022/08/03 13:07:06;;;;;;;1.60;1.10;;;40.10;37.80;;;;;;6370695;22;20010;-83
2022/08/03 13:09:44;;;;;;;28.98;26.10;;;40.10;37.80;;;;;;6370061;22;20101;-83